createdAt,value
2024-04-08T00:02:36.275Z,3.65
2024-04-08T00:05:38.592Z,4.07
2024-04-08T00:08:40.707Z,3.92
2024-04-08T00:11:43.003Z,3.60
2024-04-08T00:14:44.959Z,3.65
2024-04-08T00:17:47.258Z,3.95
2024-04-08T00:20:49.275Z,3.70
2024-04-08T00:23:51.327Z,3.97
2024-04-08T00:26:53.451Z,3.65
2024-04-08T00:29:55.508Z,3.80
2024-04-08T00:32:57.887Z,3.80
2024-04-08T00:36:00.525Z,3.60
2024-04-08T00:39:02.640Z,3.72
2024-04-08T00:42:04.852Z,3.45
2024-04-08T00:45:07.001Z,3.72
2024-04-08T00:48:11.188Z,4.40
2024-04-08T00:51:13.317Z,4.22
2024-04-08T00:54:15.626Z,4.05
2024-04-08T00:57:22.398Z,4.15
2024-04-08T01:00:26.221Z,4.30
2024-04-08T01:03:28.908Z,4.43
2024-04-08T01:06:31.128Z,4.65
2024-04-08T01:09:33.734Z,4.60
2024-04-08T01:12:35.919Z,4.40
2024-04-08T01:15:38.408Z,4.20
2024-04-08T01:18:40.633Z,4.35
2024-04-08T01:21:42.747Z,4.18
2024-04-08T01:24:44.878Z,4.45
2024-04-08T01:27:46.997Z,4.15
2024-04-08T01:30:51.293Z,3.78
2024-04-08T01:33:53.451Z,4.03
2024-04-08T01:36:55.596Z,4.13
2024-04-08T01:39:57.545Z,3.85
2024-04-08T01:42:59.719Z,3.97
2024-04-08T01:46:01.845Z,4.05
2024-04-08T01:49:04.589Z,3.70
2024-04-08T01:52:07.823Z,4.03
2024-04-08T01:55:09.792Z,4.13
2024-04-08T01:58:12.064Z,4.25
2024-04-08T02:01:14.069Z,3.70
2024-04-08T02:04:16.067Z,4.00
2024-04-08T02:07:18.554Z,4.35
2024-04-08T02:10:20.680Z,3.90
2024-04-08T02:13:22.747Z,3.60
2024-04-08T02:16:24.799Z,3.75
2024-04-08T02:19:26.884Z,3.83
2024-04-08T02:22:28.812Z,3.45
2024-04-08T02:25:30.913Z,3.67
2024-04-08T02:28:33.100Z,3.70
2024-04-08T02:31:35.081Z,3.47
2024-04-08T02:34:37.129Z,3.20
2024-04-08T02:37:39.032Z,3.58
2024-04-08T02:40:41.105Z,3.53
2024-04-08T02:43:43.123Z,3.95
2024-04-08T02:46:45.259Z,3.08
2024-04-08T02:49:47.272Z,3.70
2024-04-08T02:52:49.363Z,3.53
2024-04-08T02:56:02.065Z,3.50
2024-04-08T02:59:04.904Z,3.58
2024-04-08T03:02:06.967Z,3.80
2024-04-08T03:05:09.778Z,4.00
2024-04-08T03:08:11.907Z,3.72
2024-04-08T03:11:13.882Z,3.50
2024-04-08T03:14:16.099Z,3.97
2024-04-08T03:17:18.208Z,3.58
2024-04-08T03:20:20.219Z,3.72
2024-04-08T03:23:23.280Z,3.63
2024-04-08T03:26:25.432Z,3.55
2024-04-08T03:29:27.594Z,3.35
2024-04-08T03:32:29.614Z,3.50
2024-04-08T03:35:31.790Z,3.25
2024-04-08T03:38:33.961Z,4.07
2024-04-08T03:41:36.108Z,3.58
2024-04-08T03:44:38.188Z,3.65
2024-04-08T03:47:40.326Z,3.80
2024-04-08T03:50:42.674Z,3.28
2024-04-08T03:53:47.925Z,3.17
2024-04-08T03:56:50.093Z,3.80
2024-04-08T03:59:53.483Z,4.00
2024-04-08T04:02:55.822Z,4.40
2024-04-08T04:05:58.013Z,4.53
2024-04-08T04:09:00.039Z,3.80
2024-04-08T04:12:02.005Z,4.03
2024-04-08T04:15:05.410Z,4.55
2024-04-08T04:18:07.463Z,4.75
2024-04-08T04:21:09.488Z,4.82
2024-04-08T04:24:11.596Z,4.35
2024-04-08T04:27:13.779Z,4.20
2024-04-08T04:30:15.876Z,4.30
2024-04-08T04:33:17.935Z,3.58
2024-04-08T04:36:19.987Z,4.18
2024-04-08T04:39:22.332Z,4.40
2024-04-08T04:42:24.501Z,4.53
2024-04-08T04:45:26.510Z,4.45
2024-04-08T04:48:28.787Z,4.90
2024-04-08T04:51:31.402Z,4.82
2024-04-08T04:54:33.792Z,4.20
2024-04-08T04:57:35.748Z,4.22
2024-04-08T05:00:38.888Z,3.85
2024-04-08T05:03:41.052Z,4.43
2024-04-08T05:06:43.227Z,4.35
2024-04-08T05:09:45.191Z,4.53
2024-04-08T05:12:47.177Z,4.60
2024-04-08T05:15:59.459Z,4.15
2024-04-08T05:19:01.641Z,5.10
2024-04-08T05:22:04.961Z,4.80
2024-04-08T05:25:07.760Z,4.72
2024-04-08T05:28:09.847Z,4.72
2024-04-08T05:31:12.359Z,4.90
2024-04-08T05:34:14.465Z,4.82
2024-04-08T05:37:16.428Z,4.95
2024-04-08T05:40:18.504Z,4.82
2024-04-08T05:43:21.167Z,4.82
2024-04-08T05:46:23.587Z,5.82
2024-04-08T05:49:25.704Z,4.47
2024-04-08T05:52:28.524Z,4.20
2024-04-08T05:55:32.123Z,3.97
2024-04-08T05:58:34.259Z,3.40
2024-04-08T06:01:36.654Z,3.60
2024-04-08T06:04:38.633Z,2.90
2024-04-08T06:07:40.771Z,3.05
2024-04-08T06:10:51.789Z,3.13
2024-04-08T06:13:53.879Z,2.97
2024-04-08T06:17:00.364Z,3.25
2024-04-08T06:20:03.423Z,4.57
2024-04-08T06:23:05.537Z,4.25
2024-04-08T06:26:07.584Z,3.55
2024-04-08T06:29:09.864Z,3.70
2024-04-08T06:32:12.391Z,3.17
2024-04-08T06:35:14.442Z,2.70
2024-04-08T06:38:16.564Z,3.08
2024-04-08T06:41:20.262Z,2.90
2024-04-08T06:44:22.294Z,2.85
2024-04-08T06:47:26.373Z,2.80
2024-04-08T06:50:30.307Z,3.35
2024-04-08T06:53:32.427Z,3.33
2024-04-08T06:56:34.479Z,4.18
2024-04-08T06:59:36.468Z,3.63
2024-04-08T07:02:38.659Z,3.58
2024-04-08T07:05:46.434Z,3.78
2024-04-08T07:11:50.532Z,3.17
2024-04-08T07:14:56.112Z,2.60
2024-04-08T07:17:58.452Z,2.78
2024-04-08T07:21:00.782Z,2.55
2024-04-08T07:24:03.097Z,2.67
2024-04-08T07:27:07.000Z,3.00
2024-04-08T07:30:09.531Z,2.90
2024-04-08T07:33:12.072Z,3.40
2024-04-08T07:36:14.481Z,4.10
2024-04-08T07:39:16.531Z,3.40
2024-04-08T07:42:18.708Z,3.25
2024-04-08T07:45:20.907Z,2.88
2024-04-08T07:48:23.131Z,3.50
2024-04-08T07:51:25.247Z,4.10
2024-04-08T07:54:27.349Z,3.60
2024-04-08T07:57:29.460Z,3.67
2024-04-08T08:00:31.722Z,3.67
2024-04-08T08:03:34.607Z,3.40
2024-04-08T08:06:37.049Z,3.80
2024-04-08T08:09:39.182Z,3.38
2024-04-08T08:12:41.285Z,3.53
2024-04-08T08:15:43.323Z,3.05
2024-04-08T08:18:47.330Z,3.20
2024-04-08T08:21:49.440Z,3.10
2024-04-08T08:24:51.840Z,3.65
2024-04-08T08:27:54.031Z,3.20
2024-04-08T08:30:56.113Z,2.83
2024-04-08T08:33:58.328Z,2.83
2024-04-08T08:37:00.472Z,2.83
2024-04-08T08:40:02.452Z,2.60
2024-04-08T08:43:05.881Z,2.70
2024-04-08T08:46:09.608Z,2.75
2024-04-08T08:49:13.117Z,2.67
2024-04-08T08:52:15.233Z,2.75
2024-04-08T08:55:20.763Z,2.60
2024-04-08T08:58:23.081Z,3.20
2024-04-08T09:01:25.384Z,3.00
2024-04-08T09:04:28.280Z,3.00
2024-04-08T09:07:30.333Z,3.13
2024-04-08T09:10:46.324Z,3.03
2024-04-08T09:13:50.660Z,2.63
2024-04-08T09:16:53.819Z,2.83
2024-04-08T09:19:56.205Z,2.63
2024-04-08T09:22:58.314Z,3.22
2024-04-08T09:26:00.477Z,3.25
2024-04-08T09:29:03.291Z,2.95
2024-04-08T09:32:09.640Z,2.80
2024-04-08T09:35:12.603Z,2.83
2024-04-08T09:38:15.136Z,3.20
2024-04-08T09:41:18.784Z,3.13
2024-04-08T09:44:21.746Z,3.25
2024-04-08T09:47:27.369Z,3.08
2024-04-08T09:50:29.771Z,3.33
2024-04-08T09:53:34.362Z,3.78
2024-04-08T09:56:39.051Z,2.70
2024-04-08T09:59:46.449Z,2.75
2024-04-08T10:02:53.746Z,2.80
2024-04-08T10:05:56.581Z,2.45
2024-04-08T10:08:59.375Z,2.25
2024-04-08T10:12:05.684Z,2.70
2024-04-08T10:15:11.780Z,2.30
2024-04-08T10:18:14.204Z,2.50
2024-04-08T10:21:16.733Z,2.70
2024-04-08T10:24:38.428Z,2.40
2024-04-08T10:27:42.047Z,2.83
2024-04-08T10:30:50.091Z,2.60
2024-04-08T10:33:52.123Z,2.30
2024-04-08T10:36:55.983Z,2.85
2024-04-08T10:39:59.235Z,3.20
2024-04-08T10:43:01.650Z,2.42
2024-04-08T10:46:12.186Z,2.40
2024-04-08T10:49:14.802Z,2.30
2024-04-08T10:52:16.838Z,2.47
2024-04-08T10:55:19.134Z,2.20
2024-04-08T10:58:21.259Z,3.03
2024-04-08T11:01:23.749Z,2.30
2024-04-08T11:04:25.942Z,2.13
2024-04-08T11:07:30.568Z,2.03
2024-04-08T11:10:32.776Z,2.08
2024-04-08T11:13:35.156Z,2.90
2024-04-08T11:16:37.597Z,2.20
2024-04-08T11:19:44.947Z,2.38
2024-04-08T11:22:47.024Z,2.25
2024-04-08T11:25:49.414Z,2.10
2024-04-08T11:28:59.602Z,2.25
2024-04-08T11:32:01.647Z,3.83
2024-04-08T11:35:05.201Z,2.40
2024-04-08T11:38:21.325Z,2.50
2024-04-08T11:41:31.647Z,2.35
2024-04-08T11:44:35.554Z,2.50
2024-04-08T11:47:38.901Z,1.80
2024-04-08T11:50:43.338Z,2.00
2024-04-08T11:53:46.154Z,1.80
2024-04-08T11:56:48.711Z,2.08
2024-04-08T11:59:50.953Z,1.80
2024-04-08T12:02:53.075Z,1.75
2024-04-08T12:05:55.187Z,1.80
2024-04-08T12:08:58.035Z,1.60
2024-04-08T12:12:00.332Z,2.67
2024-04-08T12:15:06.954Z,1.80
2024-04-08T12:18:09.236Z,1.55
2024-04-08T12:21:11.942Z,1.60
2024-04-08T12:24:14.141Z,1.50
2024-04-08T12:27:17.114Z,1.90
2024-04-08T12:30:20.751Z,1.70
2024-04-08T12:33:22.991Z,1.50
2024-04-08T12:36:26.980Z,1.50
2024-04-08T12:39:31.291Z,1.50
2024-04-08T12:42:33.402Z,1.95
2024-04-08T12:45:35.936Z,1.50
2024-04-08T12:48:43.073Z,3.00
2024-04-08T12:54:51.379Z,3.15
2024-04-08T12:57:54.173Z,1.50
2024-04-08T13:00:56.262Z,1.50
2024-04-08T13:03:58.336Z,1.70
2024-04-08T13:07:00.443Z,1.50
2024-04-08T13:10:02.524Z,1.70
2024-04-08T13:13:04.820Z,1.67
2024-04-08T13:16:09.365Z,1.75
2024-04-08T13:23:46.226Z,1.25
2024-04-08T13:26:48.557Z,1.42
2024-04-08T13:29:50.759Z,1.80
2024-04-08T13:32:53.201Z,1.42
2024-04-08T13:35:55.400Z,1.40
2024-04-08T13:38:58.309Z,1.20
2024-04-08T13:42:00.481Z,1.45
2024-04-08T13:45:02.729Z,1.50
2024-04-08T13:48:05.165Z,1.33
2024-04-08T13:51:07.480Z,1.60
2024-04-08T13:54:09.623Z,1.45
2024-04-08T13:57:11.852Z,1.80
2024-04-08T14:00:15.436Z,1.45
2024-04-08T14:03:17.732Z,1.52
2024-04-08T14:06:20.659Z,1.55
2024-04-08T14:09:22.891Z,1.70
2024-04-08T14:12:25.064Z,1.60
2024-04-08T14:15:27.227Z,1.83
2024-04-08T14:18:30.270Z,1.65
2024-04-08T14:21:32.432Z,1.50
2024-04-08T14:24:34.603Z,1.50
2024-04-08T14:27:36.911Z,1.80
2024-04-08T14:30:39.246Z,1.60
2024-04-08T14:33:41.628Z,1.20
2024-04-08T14:36:44.296Z,1.40
2024-04-08T14:39:46.230Z,1.67
2024-04-08T14:42:48.404Z,2.17
2024-04-08T14:45:50.539Z,2.20
2024-04-08T14:48:53.119Z,2.03
2024-04-08T14:52:03.056Z,2.17
2024-04-08T14:55:12.058Z,1.88
2024-04-08T14:58:14.387Z,1.65
2024-04-08T15:01:17.102Z,1.60
2024-04-08T15:04:19.261Z,1.50
2024-04-08T15:07:27.615Z,1.77
2024-04-08T15:10:30.918Z,1.50
2024-04-08T15:13:33.098Z,2.42
2024-04-08T15:16:35.304Z,1.63
2024-04-08T15:19:37.436Z,1.70
2024-04-08T15:22:39.665Z,2.00
2024-04-08T15:25:43.055Z,1.75
2024-04-08T15:28:46.776Z,1.90
2024-04-08T15:31:48.807Z,1.88
2024-04-08T15:34:52.104Z,1.83
2024-04-08T15:38:00.382Z,1.92
2024-04-08T15:41:02.585Z,2.10
2024-04-08T15:44:04.813Z,1.80
2024-04-08T15:47:07.183Z,2.17
2024-04-08T15:50:10.319Z,2.25
2024-04-08T15:53:12.275Z,3.20
2024-04-08T15:56:14.356Z,2.67
2024-04-08T15:59:16.379Z,2.72
2024-04-08T16:02:18.727Z,3.53
2024-04-08T16:05:22.689Z,3.33
2024-04-08T16:08:24.747Z,3.63
2024-04-08T16:11:29.817Z,4.13
2024-04-08T16:14:31.968Z,4.40
2024-04-08T16:17:34.198Z,4.65
2024-04-08T16:20:38.510Z,4.30
2024-04-08T16:23:54.600Z,3.58
2024-04-08T16:26:58.603Z,3.78
2024-04-08T16:30:00.766Z,3.95
2024-04-08T16:33:03.142Z,4.30
2024-04-08T16:36:10.102Z,3.88
2024-04-08T16:39:20.072Z,3.85
2024-04-08T16:42:22.568Z,3.88
2024-04-08T16:45:25.810Z,4.75
2024-04-08T16:48:30.213Z,5.15
2024-04-08T16:51:33.255Z,6.38
2024-04-08T16:54:35.786Z,5.95
2024-04-08T16:57:39.473Z,6.07
2024-04-08T17:00:41.802Z,6.05
2024-04-08T17:03:44.907Z,5.65
2024-04-08T17:06:52.514Z,5.78
2024-04-08T17:12:57.161Z,5.57
2024-04-08T17:15:59.634Z,5.45
2024-04-08T17:19:02.701Z,4.88
2024-04-08T17:22:05.193Z,5.50
2024-04-08T17:25:07.617Z,5.10
2024-04-08T17:28:09.791Z,4.35
2024-04-08T17:31:11.730Z,4.50
2024-04-08T17:34:13.997Z,4.20
2024-04-08T17:37:16.394Z,4.10
2024-04-08T17:40:19.924Z,4.55
2024-04-08T17:43:21.917Z,4.38
2024-04-08T17:46:25.016Z,3.83
2024-04-08T17:49:27.028Z,4.03
2024-04-08T17:52:29.129Z,4.30
2024-04-08T17:55:31.361Z,4.00
2024-04-08T17:58:35.380Z,4.32
2024-04-08T18:01:37.705Z,4.32
2024-04-08T18:04:41.141Z,4.28
2024-04-08T18:07:44.467Z,3.88
2024-04-08T18:10:58.259Z,4.28
2024-04-08T18:14:02.286Z,4.60
2024-04-08T18:17:04.665Z,4.45
2024-04-08T18:20:07.795Z,4.07
2024-04-08T18:23:10.002Z,4.15
2024-04-08T18:26:16.250Z,4.32
2024-04-08T18:29:18.304Z,4.10
2024-04-08T18:32:21.387Z,4.30
2024-04-08T18:35:23.484Z,4.50
2024-04-08T18:38:27.252Z,4.50
2024-04-08T18:41:29.300Z,5.53
2024-04-08T18:44:31.360Z,6.90
2024-04-08T18:47:33.397Z,8.32
2024-04-08T18:50:35.547Z,6.10
2024-04-08T18:53:37.582Z,5.15
2024-04-08T18:56:39.834Z,5.80
2024-04-08T18:59:41.826Z,5.72
2024-04-08T19:02:43.908Z,5.25
2024-04-08T19:05:49.748Z,5.45
2024-04-08T19:08:53.335Z,6.73
2024-04-08T19:11:55.477Z,5.32
2024-04-08T19:14:57.615Z,5.72
2024-04-08T19:17:59.924Z,6.00
2024-04-08T19:21:09.335Z,5.70
2024-04-08T19:24:12.905Z,6.78
2024-04-08T19:27:15.068Z,7.00
2024-04-08T19:30:18.163Z,7.10
2024-04-08T19:33:20.330Z,6.47
2024-04-08T19:36:23.694Z,6.72
2024-04-08T19:39:27.210Z,7.10
2024-04-08T19:42:31.201Z,7.30
2024-04-08T19:45:38.856Z,7.50
2024-04-08T19:48:44.674Z,6.95
2024-04-08T19:51:47.482Z,6.50
2024-04-08T19:54:51.981Z,6.85
2024-04-08T19:57:54.052Z,6.65
2024-04-08T20:00:56.049Z,6.22
2024-04-08T20:04:00.476Z,5.40
2024-04-08T20:07:02.653Z,5.18
2024-04-08T20:10:05.216Z,4.72
2024-04-08T20:13:07.241Z,5.28
2024-04-08T20:16:19.386Z,5.05
2024-04-08T20:19:21.772Z,4.88
2024-04-08T20:22:23.968Z,4.72
2024-04-08T20:25:25.995Z,4.70
2024-04-08T20:28:28.234Z,4.45
2024-04-08T20:31:31.148Z,4.57
2024-04-08T20:34:35.413Z,4.50
2024-04-08T20:37:39.689Z,4.53
2024-04-08T20:40:41.672Z,4.10
2024-04-08T20:43:43.801Z,4.40
2024-04-08T20:46:45.826Z,3.65
2024-04-08T20:49:50.919Z,4.30
2024-04-08T20:52:54.006Z,4.00
2024-04-08T20:56:04.230Z,4.30
2024-04-08T20:59:06.501Z,4.05
2024-04-08T21:02:08.566Z,4.15
2024-04-08T21:05:10.742Z,3.97
2024-04-08T21:08:13.313Z,3.70
2024-04-08T21:11:15.392Z,3.40
2024-04-08T21:14:17.864Z,3.45
2024-04-08T21:17:19.905Z,3.70
2024-04-08T21:20:21.936Z,3.70
2024-04-08T21:23:24.305Z,4.07
2024-04-08T21:26:26.340Z,4.00
2024-04-08T21:29:28.424Z,4.10
2024-04-08T21:32:30.701Z,3.80
2024-04-08T21:35:33.718Z,4.00
2024-04-08T21:38:36.186Z,4.40
2024-04-08T21:41:38.321Z,4.40
2024-04-08T21:44:40.458Z,4.80
2024-04-08T21:47:42.468Z,4.38
2024-04-08T21:50:49.800Z,4.75
2024-04-08T21:53:51.929Z,4.40
2024-04-08T21:56:54.217Z,4.45
2024-04-08T21:59:56.303Z,4.72
2024-04-08T22:02:58.425Z,4.30
2024-04-08T22:06:00.649Z,4.63
2024-04-08T22:09:02.774Z,4.43
2024-04-08T22:12:04.978Z,5.13
2024-04-08T22:15:07.203Z,4.65
2024-04-08T22:18:10.664Z,4.95
2024-04-08T22:21:12.914Z,4.40
2024-04-08T22:24:15.072Z,4.80
2024-04-08T22:27:17.209Z,4.75
2024-04-08T22:30:19.483Z,4.72
2024-04-08T22:33:21.705Z,4.82
2024-04-08T22:36:24.160Z,6.05
2024-04-08T22:39:26.264Z,5.55
2024-04-08T22:42:28.474Z,5.95
2024-04-08T22:45:39.760Z,6.30
2024-04-08T22:48:42.180Z,6.20
2024-04-08T22:51:44.687Z,6.03
2024-04-08T22:54:47.148Z,6.25
2024-04-08T22:57:49.187Z,6.63
2024-04-08T23:00:51.497Z,6.00
2024-04-08T23:03:54.267Z,5.80
2024-04-08T23:06:56.591Z,5.88
2024-04-08T23:09:59.054Z,5.55
2024-04-08T23:13:01.094Z,5.50
2024-04-08T23:16:03.366Z,4.80
2024-04-08T23:19:05.648Z,5.45
2024-04-08T23:22:07.977Z,5.85
2024-04-08T23:25:10.177Z,5.97
2024-04-08T23:28:12.241Z,5.45
2024-04-08T23:31:14.183Z,5.47
2024-04-08T23:34:16.517Z,5.40
2024-04-08T23:37:19.026Z,5.15
2024-04-08T23:40:21.768Z,5.18
2024-04-08T23:43:26.902Z,4.80
2024-04-08T23:46:28.928Z,5.63
2024-04-08T23:49:31.024Z,5.13
2024-04-08T23:52:33.168Z,4.60
2024-04-08T23:55:35.258Z,4.55
2024-04-08T23:58:37.765Z,5.20
